Bochem Ghent — VRIA8 — position and weather

sailwx.info

Track history (hours):
 
Tides and Currents Weather Stations Pressure Air Temp Water Temp Dewpoint Dewpoint Depression Visibility Wind Speed Wind Dir Waves Ship Positions

Bochem Ghent

Last reported at 2017-Nov-17 14:05 UTC. Time now 2017-Nov-23 00:26 UTC.
Position N 36°15' W 010°35'.

Length 170 m; draft 8 m.

Type: Ship. MMSI: 477351300.

Date/timePositionNaut miles runAvg speedWind from/ knotsBaromVisibWave heightAir tempDewpointWater temp
2017-Nov-17 14:05N 36°15' W 010°35'113.5
2017-Nov-17 14:00N 36°16' W 010°35'713.5
2017-Nov-17 13:28N 36°23' W 010°33'1013.6
2017-Nov-17 12:45N 36°33' W 010°30'913.5
2017-Nov-17 12:05N 36°42' W 010°28'113.5
2017-Nov-17 12:00N 36°43' W 010°28'713.4
2017-Nov-17 11:30N 36°50' W 010°27'713.1
2017-Nov-17 10:59N 36°56' W 010°25'713.7
2017-Nov-17 10:29N 37°03' W 010°24'713.8
2017-Nov-17 10:00N 37°10' W 010°22'714.0
2017-Nov-17 09:31N 37°16' W 010°19'713.9
2017-Nov-17 09:00N 37°23' W 010°17'713.5
2017-Nov-17 08:30N 37°29' W 010°14'713.6
2017-Nov-17 08:00N 37°36' W 010°12'713.6
2017-Nov-17 07:30N 37°42' W 010°10'713.1
2017-Nov-17 07:00N 37°49' W 010°08'713.2
2017-Nov-17 06:30N 37°55' W 010°07'713.5
2017-Nov-17 06:00N 38°02' W 010°05'713.7
2017-Nov-17 05:30N 38°09' W 010°03'713.8
2017-Nov-17 05:01N 38°15' W 010°01'713.6
2017-Nov-17 04:31N 38°22' W 010°01'713.6
2017-Nov-17 04:00N 38°29' W 010°03'713.2
2017-Nov-17 03:30N 38°35' W 010°05'713.3
2017-Nov-17 03:00N 38°42' W 010°06'713.3
2017-Nov-17 02:30N 38°48' W 010°06'713.2
2017-Nov-17 02:00N 38°55' W 010°07'713.5
2017-Nov-17 01:30N 39°01' W 010°08'713.1
2017-Nov-17 01:00N 39°08' W 010°08'713.3
2017-Nov-17 00:30N 39°15' W 010°09'913.7
2017-Nov-16 23:52N 39°24' W 010°08'613.7
2017-Nov-16 23:26N 39°29' W 010°08'2013.6
2017-Nov-16 21:58N 39°49' W 010°08'1313.8
2017-Nov-16 21:02N 40°02' W 010°07'013.6
2017-Nov-16 21:00N 40°03' W 010°07'36813.1
2017-Nov-15 17:00N 45°60' W 008°04'1112.6
2017-Nov-15 16:08N 46°09' W 007°57'1713.0
2017-Nov-15 14:49N 46°25' W 007°47'3513.1
2017-Nov-15 12:06N 46°56' W 007°22'1013.1
2017-Nov-15 11:22N 47°05' W 007°16'513.1
2017-Nov-15 10:58N 47°09' W 007°12'613.0
2017-Nov-15 10:30N 47°15' W 007°08'913.3
2017-Nov-15 09:47N 47°23' W 007°03'513.5
2017-Nov-15 09:24N 47°28' W 006°59'613.6
2017-Nov-15 08:59N 47°33' W 006°55'713.9
2017-Nov-15 08:30N 47°39' W 006°50'713.8
2017-Nov-15 08:00N 47°45' W 006°45'714.2
2017-Nov-15 07:30N 47°51' W 006°39'714.2
2017-Nov-15 06:58N 47°57' W 006°34'714.5
2017-Nov-15 06:29N 48°04' W 006°29'714.4
2017-Nov-15 05:58N 48°10' W 006°23'714.4
2017-Nov-15 05:27N 48°17' W 006°18'614.4
2017-Nov-15 05:00N 48°22' W 006°13'714.1
2017-Nov-15 04:30N 48°28' W 006°08'2113.5
2017-Nov-15 02:56N 48°47' W 005°53'2012.1
2017-Nov-15 01:19N 49°01' W 005°33'512.1
2017-Nov-15 00:53N 49°04' W 005°26'612.1
2017-Nov-15 00:24N 49°07' W 005°18'3112.6
2017-Nov-14 21:55N 49°22' W 004°36'613.8
2017-Nov-14 21:30N 49°25' W 004°29'814.1
2017-Nov-14 20:58N 49°29' W 004°19'1014.1
2017-Nov-14 20:15N 49°34' W 004°05'514.0
2017-Nov-14 19:54N 49°37' W 003°59'613.7
2017-Nov-14 19:27N 49°40' W 003°51'713.5
2017-Nov-14 18:58N 49°43' W 003°42'1012.9
2017-Nov-14 18:12N 49°48' W 003°29'312.6
2017-Nov-14 17:59N 49°50' W 003°25'712.2
2017-Nov-14 17:23N 49°53' W 003°15'911.6
2017-Nov-14 16:37N 49°56' W 003°02'111.3
2017-Nov-14 16:30N 49°56' W 002°60'611.5
2017-Nov-14 16:00N 49°58' W 002°51'611.3
2017-Nov-14 15:27N 49°59' W 002°42'611.5
2017-Nov-14 14:55N 50°01' W 002°33'1812.4
2017-Nov-14 13:29N 50°08' W 002°07'613.7
2017-Nov-14 13:00N 50°09' W 001°57'714.5
2017-Nov-14 12:31N 50°11' W 001°47'714.9
2017-Nov-14 12:00N 50°13' W 001°35'815.2
2017-Nov-14 11:30N 50°15' W 001°24'815.4
2017-Nov-14 10:58N 50°17' W 001°11'3114.3
2017-Nov-14 08:47N 50°25' W 000°24'413.2
2017-Nov-14 08:30N 50°26' W 000°18'612.9
2017-Nov-14 08:00N 50°28' W 000°08'612.6
2017-Nov-14 07:30N 50°29' E 000°01'612.2
2017-Nov-14 07:00N 50°31' E 000°10'611.8
2017-Nov-14 06:29N 50°32' E 000°20'611.6
2017-Nov-14 05:59N 50°34' E 000°28'611.6
2017-Nov-14 05:30N 50°36' E 000°37'612.1
2017-Nov-14 05:00N 50°40' E 000°44'612.7
2017-Nov-14 04:30N 50°43' E 000°53'713.3
2017-Nov-14 04:00N 50°47' E 001°01'714.1
2017-Nov-14 03:29N 50°51' E 001°11'714.7
2017-Nov-14 02:59N 50°56' E 001°20'715.2
2017-Nov-14 02:30N 51°02' E 001°27'714.7
2017-Nov-14 02:00N 51°07' E 001°35'714.1
2017-Nov-14 01:30N 51°12' E 001°43'713.4
2017-Nov-14 01:00N 51°17' E 001°50'613.0
2017-Nov-14 00:30N 51°23' E 001°55'612.4
2017-Nov-14 00:00N 51°28' E 001°60'612.1
2017-Nov-13 23:30N 51°33' E 002°06'612.0
2017-Nov-13 23:00N 51°37' E 002°12'79 3.7
2017-Nov-13 01:59N 51°53' E 004°17'0 0.0
2017-Nov-13 01:29N 51°53' E 004°17'0 0.0
2017-Nov-13 00:59N 51°53' E 004°17'0 0.0
2017-Nov-13 00:29N 51°53' E 004°17'0 0.0
2017-Nov-12 23:56N 51°53' E 004°17'0 0.0
2017-Nov-12 23:26N 51°53' E 004°17'0 0.0
2017-Nov-12 22:56N 51°53' E 004°17'0 0.0
2017-Nov-12 22:23N 51°53' E 004°17'0 0.0
2017-Nov-12 21:56N 51°53' E 004°17'0 0.0
2017-Nov-12 21:29N 51°53' E 004°17'0 0.0
2017-Nov-12 20:56N 51°53' E 004°17'0 0.0
2017-Nov-12 20:26N 51°53' E 004°17'0 0.0
2017-Nov-12 19:56N 51°53' E 004°17'0 0.0
2017-Nov-12 19:29N 51°53' E 004°17'0 0.0
2017-Nov-12 18:59N 51°53' E 004°17'0 0.0
2017-Nov-12 18:29N 51°53' E 004°17'0 0.0
2017-Nov-12 17:59N 51°53' E 004°17'0 0.0
2017-Nov-12 17:29N 51°53' E 004°17'0 0.0
2017-Nov-12 16:56N 51°53' E 004°17'0 0.0
2017-Nov-12 16:26N 51°53' E 004°17'0 0.0
2017-Nov-12 15:59N 51°53' E 004°17'0 0.0
2017-Nov-12 15:29N 51°53' E 004°17'0 0.0
2017-Nov-12 14:59N 51°53' E 004°17'0 0.0
2017-Nov-12 14:29N 51°53' E 004°17'0 0.0
2017-Nov-12 13:59N 51°53' E 004°17'0 0.0
2017-Nov-12 13:29N 51°53' E 004°17'0 0.0
2017-Nov-12 12:56N 51°53' E 004°17'0 0.0
2017-Nov-12 12:29N 51°53' E 004°17'0 0.0
2017-Nov-12 11:59N 51°53' E 004°17'0 0.0
2017-Nov-12 11:29N 51°53' E 004°17'0 0.0
2017-Nov-12 10:56N 51°53' E 004°17'0 0.0
2017-Nov-12 10:26N 51°53' E 004°17'0 0.0
2017-Nov-12 09:59N 51°53' E 004°17'0 0.0
2017-Nov-12 09:29N 51°53' E 004°17'0 0.0
2017-Nov-12 08:56N 51°53' E 004°17'0 0.0
2017-Nov-12 08:26N 51°53' E 004°17'0 0.0
2017-Nov-12 07:59N 51°53' E 004°17'0 0.0
2017-Nov-12 07:26N 51°53' E 004°17'0 0.0
2017-Nov-12 06:56N 51°53' E 004°17'0 0.0
2017-Nov-12 06:29N 51°53' E 004°17'0 0.0
2017-Nov-12 05:59N 51°53' E 004°17'0 0.0
2017-Nov-12 05:29N 51°53' E 004°17'0 0.0
2017-Nov-12 04:59N 51°53' E 004°17'0 0.0
2017-Nov-12 04:26N 51°53' E 004°17'0 0.0
2017-Nov-12 03:59N 51°53' E 004°17'0 0.0
2017-Nov-12 03:29N 51°53' E 004°17'0 0.0
2017-Nov-12 02:59N 51°53' E 004°17'0 0.0
2017-Nov-12 02:29N 51°53' E 004°17'0 0.0
2017-Nov-12 01:59N 51°53' E 004°17'0 0.0
2017-Nov-12 01:26N 51°53' E 004°17'0 0.0
2017-Nov-12 00:59N 51°53' E 004°17'0 0.0
2017-Nov-12 00:29N 51°53' E 004°17'0 0.0
2017-Nov-11 23:59N 51°53' E 004°17'0 0.0
2017-Nov-11 23:29N 51°53' E 004°17'0 0.0
2017-Nov-11 22:59N 51°53' E 004°17'0 0.0
2017-Nov-11 22:20N 51°53' E 004°17'0 0.0
2017-Nov-11 21:59N 51°53' E 004°17'0 0.6
2017-Nov-11 21:30N 51°53' E 004°17'1 1.6
2017-Nov-11 21:01N 51°54' E 004°17'4 8.2
2017-Nov-11 20:31N 51°56' E 004°12'611.3
2017-Nov-11 20:01N 51°59' E 004°04'612.3
2017-Nov-11 19:31N 52°00' E 003°54'4 7.2
2017-Nov-11 19:01N 51°60' E 003°49'3 6.4
2017-Nov-11 18:30N 51°59' E 003°44'611.6
2017-Nov-11 18:00N 51°58' E 003°34'1411.9
2017-Nov-11 16:48N 51°48' E 003°18'510.7
2017-Nov-11 16:22N 51°44' E 003°17'4 9.4
2017-Nov-11 15:57N 51°40' E 003°19'510.4
2017-Nov-11 15:30N 51°36' E 003°23'510.0
2017-Nov-11 15:01N 51°31' E 003°26'510.0
2017-Nov-11 14:30N 51°28' E 003°31'4 7.5
2017-Nov-11 14:01N 51°26' E 003°36'5 9.4
2017-Nov-11 13:31N 51°23' E 003°43'612.3
2017-Nov-11 13:00N 51°21' E 003°52'713.1
2017-Nov-11 12:30N 51°26' E 003°58'611.9
2017-Nov-11 12:00N 51°22' E 004°06'5 9.6
2017-Nov-11 11:30N 51°22' E 004°13'611.1
2017-Nov-11 11:01N 51°17' E 004°19'1 2.0
2017-Nov-11 10:31N 51°17' E 004°20'0 0.0
2017-Nov-11 10:00N 51°17' E 004°20'2 3.7
2017-Nov-11 09:30N 51°15' E 004°22'0 0.5
2017-Nov-11 09:01N 51°15' E 004°21'0 0.0
2017-Nov-11 08:27N 51°15' E 004°21'0 0.0
2017-Nov-11 08:00N 51°15' E 004°21'0 0.0
2017-Nov-11 07:30N 51°15' E 004°21'0 0.0
2017-Nov-11 06:57N 51°15' E 004°21'0 0.0
2017-Nov-11 06:30N 51°15' E 004°21'0 0.0
2017-Nov-11 06:00N 51°15' E 004°21'0 0.0
2017-Nov-11 05:30N 51°15' E 004°21'0 0.0
2017-Nov-11 05:01N 51°15' E 004°21'0 0.0
2017-Nov-11 04:30N 51°15' E 004°21'0 0.0
2017-Nov-11 04:01N 51°15' E 004°21'0 0.0
2017-Nov-11 03:30N 51°15' E 004°21'0 0.0
2017-Nov-11 03:00N 51°15' E 004°21'0 0.0
2017-Nov-11 02:31N 51°15' E 004°21'0 0.0
2017-Nov-11 02:00N 51°15' E 004°21'0 0.0
2017-Nov-11 01:30N 51°15' E 004°21'0 0.0
2017-Nov-11 01:01N 51°15' E 004°21'0 0.0
2017-Nov-11 00:31N 51°15' E 004°21'0 0.0
2017-Nov-11 00:00N 51°15' E 004°21'0 0.0
2017-Nov-10 23:30N 51°15' E 004°21'0 0.0
2017-Nov-10 23:00N 51°15' E 004°21'0 0.0
2017-Nov-10 22:30N 51°15' E 004°21'0 0.0
2017-Nov-10 22:01N 51°15' E 004°21'0 0.0
2017-Nov-10 21:31N 51°15' E 004°21'0 0.0
2017-Nov-10 21:01N 51°15' E 004°21'0 0.0
2017-Nov-10 20:30N 51°15' E 004°21'0 0.0
2017-Nov-10 20:01N 51°15' E 004°21'0 0.0
2017-Nov-10 19:28N 51°15' E 004°21'0 0.0
2017-Nov-10 19:01N 51°15' E 004°21'0 0.0
2017-Nov-10 18:31N 51°15' E 004°21'0 0.0
2017-Nov-10 18:00N 51°15' E 004°21'0 0.0
2017-Nov-10 17:31N 51°15' E 004°21'0 0.0
2017-Nov-10 17:00N 51°15' E 004°21'0 0.0
2017-Nov-10 16:27N 51°15' E 004°21'0 0.0
2017-Nov-10 16:00N 51°15' E 004°21'0 0.0
2017-Nov-10 15:30N 51°15' E 004°21'0 0.0
2017-Nov-10 15:00N 51°15' E 004°21'0 0.0
2017-Nov-10 14:30N 51°15' E 004°21'0 0.0
2017-Nov-10 14:00N 51°15' E 004°21'0 0.0
2017-Nov-10 13:27N 51°15' E 004°21'0 0.0
2017-Nov-10 13:00N 51°15' E 004°21'0 0.0
2017-Nov-10 12:30N 51°15' E 004°21'0 0.0
2017-Nov-10 12:00N 51°15' E 004°21'0 0.0
2017-Nov-10 11:31N 51°15' E 004°21'0 0.0
2017-Nov-10 11:00N 51°15' E 004°21'0 0.0
2017-Nov-10 10:30N 51°15' E 004°21'0 0.0
2017-Nov-10 10:00N 51°15' E 004°21'0 0.0
2017-Nov-10 09:27N 51°15' E 004°21'0 0.0
2017-Nov-10 09:01N 51°15' E 004°21'0 0.0
2017-Nov-10 08:28N 51°15' E 004°21'0 0.0
2017-Nov-10 08:01N 51°15' E 004°21'0 0.0
2017-Nov-10 07:27N 51°15' E 004°21'0 0.0
2017-Nov-10 07:01N 51°15' E 004°21'0 0.0
2017-Nov-10 06:31N 51°15' E 004°21'0 0.0
2017-Nov-10 06:00N 51°15' E 004°21'0 0.0
2017-Nov-10 05:28N 51°15' E 004°21'0 0.0
2017-Nov-10 05:00N 51°15' E 004°21'0 0.0
2017-Nov-10 04:30N 51°15' E 004°21'0 0.0
2017-Nov-10 04:00N 51°15' E 004°21'0 0.0
2017-Nov-10 03:30N 51°15' E 004°21'0 0.0
2017-Nov-10 03:00N 51°15' E 004°21'0 0.0
2017-Nov-10 02:25N 51°15' E 004°21'0 0.0
2017-Nov-10 02:00N 51°15' E 004°21'0 0.0
2017-Nov-10 01:30N 51°15' E 004°21'0 0.0
2017-Nov-10 01:00N 51°15' E 004°21'2 3.5
2017-Nov-10 00:30N 51°17' E 004°20'3 5.8
2017-Nov-10 00:00N 51°19' E 004°19'3 5.1
2017-Nov-09 23:30N 51°22' E 004°17'0 0.2
2017-Nov-09 22:58N 51°22' E 004°17'0 0.0
2017-Nov-09 22:13N 51°22' E 004°17'0 0.0
2017-Nov-09 20:31N 51°22' E 004°17'0 0.0
2017-Nov-09 20:28N 51°22' E 004°17'0 0.0
2017-Nov-09 19:07N 51°22' E 004°17'0 0.0
2017-Nov-09 18:13N 51°22' E 004°17'0 0.0
2017-Nov-09 15:55N 51°22' E 004°17'0 0.0
2017-Nov-09 15:22N 51°22' E 004°17'0 0.0
2017-Nov-09 11:52N 51°22' E 004°17'0 0.0
2017-Nov-09 09:46N 51°22' E 004°17'0 0.0
2017-Nov-08 21:16N 51°22' E 004°17'0 0.0
2017-Nov-08 20:52N 51°22' E 004°17'0 0.0
2017-Nov-08 20:22N 51°22' E 004°17'0 0.0
2017-Nov-08 19:16N 51°22' E 004°17'0 0.0
2017-Nov-08 12:20N 51°22' E 004°17'0 0.0
2017-Nov-08 12:00N 51°22' E 004°17'1 1.9
2017-Nov-08 11:31N 51°21' E 004°18'0 0.7
2017-Nov-08 11:01N 51°21' E 004°17'0 0.0
2017-Nov-08 10:31N 51°21' E 004°17'0 0.5
2017-Nov-08 10:00N 51°21' E 004°17'3 6.9
2017-Nov-08 09:31N 51°23' E 004°13'4 7.9
2017-Nov-08 09:00N 51°22' E 004°06'4 7.7
2017-Nov-08 08:30N 51°25' E 004°02'3 5.4
2017-Nov-08 08:00N 51°24' E 003°58'4 8.8
2017-Nov-08 07:30N 51°21' E 003°53'4 9.0
2017-Nov-08 07:00N 51°22' E 003°46'5 9.6
2017-Nov-08 06:30N 51°26' E 003°41'5 9.2
2017-Nov-08 06:00N 51°26' E 003°34'2 4.5
2017-Nov-08 05:30N 51°25' E 003°30'4 7.3
2017-Nov-08 05:00N 51°25' E 003°25'611.2
2017-Nov-08 04:30N 51°25' E 003°16'611.8
2017-Nov-08 04:01N 51°24' E 003°06'611.7
2017-Nov-08 03:30N 51°25' E 002°57'611.9
2017-Nov-08 03:00N 51°25' E 002°48'3 6.4
2017-Nov-08 02:31N 51°24' E 002°43'2 4.2
2017-Nov-08 01:56N 51°25' E 002°40'0 0.0
2017-Nov-08 01:29N 51°25' E 002°40'0 0.1
2017-Nov-07 22:47N 51°25' E 002°40'0 0.0
2017-Nov-07 22:29N 51°25' E 002°40'0 0.0
2017-Nov-07 21:14N 51°25' E 002°40'0 0.1
2017-Nov-07 20:38N 51°25' E 002°40'0 0.2
2017-Nov-07 20:14N 51°25' E 002°40'0 0.1
2017-Nov-07 19:35N 51°25' E 002°40'0 0.1
2017-Nov-07 19:29N 51°25' E 002°40'0 0.0
2017-Nov-07 16:35N 51°25' E 002°40'0 0.0
2017-Nov-07 16:20N 51°25' E 002°40'0 0.0
2017-Nov-07 16:00N 51°25' E 002°40'0 0.0
2017-Nov-07 15:29N 51°25' E 002°40'0 0.0
2017-Nov-07 14:59N 51°25' E 002°40'0 0.0
2017-Nov-07 14:29N 51°25' E 002°40'  
Track history (hours):
 
Tides and Currents Weather Stations Pressure Air Temp Water Temp Dewpoint Dewpoint Depression Visibility Wind Speed Wind Dir Waves Ship Positions

Bochem Ghent

Last reported at 2017-Nov-17 14:05 UTC. Time now 2017-Nov-23 00:26 UTC.
Position N 36°15' W 010°35'.

Length 170 m; draft 8 m.

Type: Ship. MMSI: 477351300.

Date/timePositionNaut miles runAvg speedWind from/ knotsBaromVisibWave heightAir tempDewpointWater temp
2017-Nov-17 14:05N 36°15' W 010°35'113.5
2017-Nov-17 14:00N 36°16' W 010°35'713.5
2017-Nov-17 13:28N 36°23' W 010°33'1013.6
2017-Nov-17 12:45N 36°33' W 010°30'913.5
2017-Nov-17 12:05N 36°42' W 010°28'113.5
2017-Nov-17 12:00N 36°43' W 010°28'713.4
2017-Nov-17 11:30N 36°50' W 010°27'713.1
2017-Nov-17 10:59N 36°56' W 010°25'713.7
2017-Nov-17 10:29N 37°03' W 010°24'713.8
2017-Nov-17 10:00N 37°10' W 010°22'714.0
2017-Nov-17 09:31N 37°16' W 010°19'713.9
2017-Nov-17 09:00N 37°23' W 010°17'713.5
2017-Nov-17 08:30N 37°29' W 010°14'713.6
2017-Nov-17 08:00N 37°36' W 010°12'713.6
2017-Nov-17 07:30N 37°42' W 010°10'713.1
2017-Nov-17 07:00N 37°49' W 010°08'713.2
2017-Nov-17 06:30N 37°55' W 010°07'713.5
2017-Nov-17 06:00N 38°02' W 010°05'713.7
2017-Nov-17 05:30N 38°09' W 010°03'713.8
2017-Nov-17 05:01N 38°15' W 010°01'713.6
2017-Nov-17 04:31N 38°22' W 010°01'713.6
2017-Nov-17 04:00N 38°29' W 010°03'713.2
2017-Nov-17 03:30N 38°35' W 010°05'713.3
2017-Nov-17 03:00N 38°42' W 010°06'713.3
2017-Nov-17 02:30N 38°48' W 010°06'713.2
2017-Nov-17 02:00N 38°55' W 010°07'713.5
2017-Nov-17 01:30N 39°01' W 010°08'713.1
2017-Nov-17 01:00N 39°08' W 010°08'713.3
2017-Nov-17 00:30N 39°15' W 010°09'913.7
2017-Nov-16 23:52N 39°24' W 010°08'613.7
2017-Nov-16 23:26N 39°29' W 010°08'2013.6
2017-Nov-16 21:58N 39°49' W 010°08'1313.8
2017-Nov-16 21:02N 40°02' W 010°07'013.6
2017-Nov-16 21:00N 40°03' W 010°07'36813.1
2017-Nov-15 17:00N 45°60' W 008°04'1112.6
2017-Nov-15 16:08N 46°09' W 007°57'1713.0
2017-Nov-15 14:49N 46°25' W 007°47'3513.1
2017-Nov-15 12:06N 46°56' W 007°22'1013.1
2017-Nov-15 11:22N 47°05' W 007°16'513.1
2017-Nov-15 10:58N 47°09' W 007°12'613.0
2017-Nov-15 10:30N 47°15' W 007°08'913.3
2017-Nov-15 09:47N 47°23' W 007°03'513.5
2017-Nov-15 09:24N 47°28' W 006°59'613.6
2017-Nov-15 08:59N 47°33' W 006°55'713.9
2017-Nov-15 08:30N 47°39' W 006°50'713.8
2017-Nov-15 08:00N 47°45' W 006°45'714.2
2017-Nov-15 07:30N 47°51' W 006°39'714.2
2017-Nov-15 06:58N 47°57' W 006°34'714.5
2017-Nov-15 06:29N 48°04' W 006°29'714.4
2017-Nov-15 05:58N 48°10' W 006°23'714.4
2017-Nov-15 05:27N 48°17' W 006°18'614.4
2017-Nov-15 05:00N 48°22' W 006°13'714.1
2017-Nov-15 04:30N 48°28' W 006°08'2113.5
2017-Nov-15 02:56N 48°47' W 005°53'2012.1
2017-Nov-15 01:19N 49°01' W 005°33'512.1
2017-Nov-15 00:53N 49°04' W 005°26'612.1
2017-Nov-15 00:24N 49°07' W 005°18'3112.6
2017-Nov-14 21:55N 49°22' W 004°36'613.8
2017-Nov-14 21:30N 49°25' W 004°29'814.1
2017-Nov-14 20:58N 49°29' W 004°19'1014.1
2017-Nov-14 20:15N 49°34' W 004°05'514.0
2017-Nov-14 19:54N 49°37' W 003°59'613.7
2017-Nov-14 19:27N 49°40' W 003°51'713.5
2017-Nov-14 18:58N 49°43' W 003°42'1012.9
2017-Nov-14 18:12N 49°48' W 003°29'312.6
2017-Nov-14 17:59N 49°50' W 003°25'712.2
2017-Nov-14 17:23N 49°53' W 003°15'911.6
2017-Nov-14 16:37N 49°56' W 003°02'111.3
2017-Nov-14 16:30N 49°56' W 002°60'611.5
2017-Nov-14 16:00N 49°58' W 002°51'611.3
2017-Nov-14 15:27N 49°59' W 002°42'611.5
2017-Nov-14 14:55N 50°01' W 002°33'1812.4
2017-Nov-14 13:29N 50°08' W 002°07'613.7
2017-Nov-14 13:00N 50°09' W 001°57'714.5
2017-Nov-14 12:31N 50°11' W 001°47'714.9
2017-Nov-14 12:00N 50°13' W 001°35'815.2
2017-Nov-14 11:30N 50°15' W 001°24'815.4
2017-Nov-14 10:58N 50°17' W 001°11'3114.3
2017-Nov-14 08:47N 50°25' W 000°24'413.2
2017-Nov-14 08:30N 50°26' W 000°18'612.9
2017-Nov-14 08:00N 50°28' W 000°08'612.6
2017-Nov-14 07:30N 50°29' E 000°01'612.2
2017-Nov-14 07:00N 50°31' E 000°10'611.8
2017-Nov-14 06:29N 50°32' E 000°20'611.6
2017-Nov-14 05:59N 50°34' E 000°28'611.6
2017-Nov-14 05:30N 50°36' E 000°37'612.1
2017-Nov-14 05:00N 50°40' E 000°44'612.7
2017-Nov-14 04:30N 50°43' E 000°53'713.3
2017-Nov-14 04:00N 50°47' E 001°01'714.1
2017-Nov-14 03:29N 50°51' E 001°11'714.7
2017-Nov-14 02:59N 50°56' E 001°20'715.2
2017-Nov-14 02:30N 51°02' E 001°27'714.7
2017-Nov-14 02:00N 51°07' E 001°35'714.1
2017-Nov-14 01:30N 51°12' E 001°43'713.4
2017-Nov-14 01:00N 51°17' E 001°50'613.0
2017-Nov-14 00:30N 51°23' E 001°55'612.4
2017-Nov-14 00:00N 51°28' E 001°60'612.1
2017-Nov-13 23:30N 51°33' E 002°06'612.0
2017-Nov-13 23:00N 51°37' E 002°12'79 3.7
2017-Nov-13 01:59N 51°53' E 004°17'0 0.0
2017-Nov-13 01:29N 51°53' E 004°17'0 0.0
2017-Nov-13 00:59N 51°53' E 004°17'0 0.0
2017-Nov-13 00:29N 51°53' E 004°17'0 0.0
2017-Nov-12 23:56N 51°53' E 004°17'0 0.0
2017-Nov-12 23:26N 51°53' E 004°17'0 0.0
2017-Nov-12 22:56N 51°53' E 004°17'0 0.0
2017-Nov-12 22:23N 51°53' E 004°17'0 0.0
2017-Nov-12 21:56N 51°53' E 004°17'0 0.0
2017-Nov-12 21:29N 51°53' E 004°17'0 0.0
2017-Nov-12 20:56N 51°53' E 004°17'0 0.0
2017-Nov-12 20:26N 51°53' E 004°17'0 0.0
2017-Nov-12 19:56N 51°53' E 004°17'0 0.0
2017-Nov-12 19:29N 51°53' E 004°17'0 0.0
2017-Nov-12 18:59N 51°53' E 004°17'0 0.0
2017-Nov-12 18:29N 51°53' E 004°17'0 0.0
2017-Nov-12 17:59N 51°53' E 004°17'0 0.0
2017-Nov-12 17:29N 51°53' E 004°17'0 0.0
2017-Nov-12 16:56N 51°53' E 004°17'0 0.0
2017-Nov-12 16:26N 51°53' E 004°17'0 0.0
2017-Nov-12 15:59N 51°53' E 004°17'0 0.0
2017-Nov-12 15:29N 51°53' E 004°17'0 0.0
2017-Nov-12 14:59N 51°53' E 004°17'0 0.0
2017-Nov-12 14:29N 51°53' E 004°17'0 0.0
2017-Nov-12 13:59N 51°53' E 004°17'0 0.0
2017-Nov-12 13:29N 51°53' E 004°17'0 0.0
2017-Nov-12 12:56N 51°53' E 004°17'0 0.0
2017-Nov-12 12:29N 51°53' E 004°17'0 0.0
2017-Nov-12 11:59N 51°53' E 004°17'0 0.0
2017-Nov-12 11:29N 51°53' E 004°17'0 0.0
2017-Nov-12 10:56N 51°53' E 004°17'0 0.0
2017-Nov-12 10:26N 51°53' E 004°17'0 0.0
2017-Nov-12 09:59N 51°53' E 004°17'0 0.0
2017-Nov-12 09:29N 51°53' E 004°17'0 0.0
2017-Nov-12 08:56N 51°53' E 004°17'0 0.0
2017-Nov-12 08:26N 51°53' E 004°17'0 0.0
2017-Nov-12 07:59N 51°53' E 004°17'0 0.0
2017-Nov-12 07:26N 51°53' E 004°17'0 0.0
2017-Nov-12 06:56N 51°53' E 004°17'0 0.0
2017-Nov-12 06:29N 51°53' E 004°17'0 0.0
2017-Nov-12 05:59N 51°53' E 004°17'0 0.0
2017-Nov-12 05:29N 51°53' E 004°17'0 0.0
2017-Nov-12 04:59N 51°53' E 004°17'0 0.0
2017-Nov-12 04:26N 51°53' E 004°17'0 0.0
2017-Nov-12 03:59N 51°53' E 004°17'0 0.0
2017-Nov-12 03:29N 51°53' E 004°17'0 0.0
2017-Nov-12 02:59N 51°53' E 004°17'0 0.0
2017-Nov-12 02:29N 51°53' E 004°17'0 0.0
2017-Nov-12 01:59N 51°53' E 004°17'0 0.0
2017-Nov-12 01:26N 51°53' E 004°17'0 0.0
2017-Nov-12 00:59N 51°53' E 004°17'0 0.0
2017-Nov-12 00:29N 51°53' E 004°17'0 0.0
2017-Nov-11 23:59N 51°53' E 004°17'0 0.0
2017-Nov-11 23:29N 51°53' E 004°17'0 0.0
2017-Nov-11 22:59N 51°53' E 004°17'0 0.0
2017-Nov-11 22:20N 51°53' E 004°17'0 0.0
2017-Nov-11 21:59N 51°53' E 004°17'0 0.6
2017-Nov-11 21:30N 51°53' E 004°17'1 1.6
2017-Nov-11 21:01N 51°54' E 004°17'4 8.2
2017-Nov-11 20:31N 51°56' E 004°12'611.3
2017-Nov-11 20:01N 51°59' E 004°04'612.3
2017-Nov-11 19:31N 52°00' E 003°54'4 7.2
2017-Nov-11 19:01N 51°60' E 003°49'3 6.4
2017-Nov-11 18:30N 51°59' E 003°44'611.6
2017-Nov-11 18:00N 51°58' E 003°34'1411.9
2017-Nov-11 16:48N 51°48' E 003°18'510.7
2017-Nov-11 16:22N 51°44' E 003°17'4 9.4
2017-Nov-11 15:57N 51°40' E 003°19'510.4
2017-Nov-11 15:30N 51°36' E 003°23'510.0
2017-Nov-11 15:01N 51°31' E 003°26'510.0
2017-Nov-11 14:30N 51°28' E 003°31'4 7.5
2017-Nov-11 14:01N 51°26' E 003°36'5 9.4
2017-Nov-11 13:31N 51°23' E 003°43'612.3
2017-Nov-11 13:00N 51°21' E 003°52'713.1
2017-Nov-11 12:30N 51°26' E 003°58'611.9
2017-Nov-11 12:00N 51°22' E 004°06'5 9.6
2017-Nov-11 11:30N 51°22' E 004°13'611.1
2017-Nov-11 11:01N 51°17' E 004°19'1 2.0
2017-Nov-11 10:31N 51°17' E 004°20'0 0.0
2017-Nov-11 10:00N 51°17' E 004°20'2 3.7
2017-Nov-11 09:30N 51°15' E 004°22'0 0.5
2017-Nov-11 09:01N 51°15' E 004°21'0 0.0
2017-Nov-11 08:27N 51°15' E 004°21'0 0.0
2017-Nov-11 08:00N 51°15' E 004°21'0 0.0
2017-Nov-11 07:30N 51°15' E 004°21'0 0.0
2017-Nov-11 06:57N 51°15' E 004°21'0 0.0
2017-Nov-11 06:30N 51°15' E 004°21'0 0.0
2017-Nov-11 06:00N 51°15' E 004°21'0 0.0
2017-Nov-11 05:30N 51°15' E 004°21'0 0.0
2017-Nov-11 05:01N 51°15' E 004°21'0 0.0
2017-Nov-11 04:30N 51°15' E 004°21'0 0.0
2017-Nov-11 04:01N 51°15' E 004°21'0 0.0
2017-Nov-11 03:30N 51°15' E 004°21'0 0.0
2017-Nov-11 03:00N 51°15' E 004°21'0 0.0
2017-Nov-11 02:31N 51°15' E 004°21'0 0.0
2017-Nov-11 02:00N 51°15' E 004°21'0 0.0
2017-Nov-11 01:30N 51°15' E 004°21'0 0.0
2017-Nov-11 01:01N 51°15' E 004°21'0 0.0
2017-Nov-11 00:31N 51°15' E 004°21'0 0.0
2017-Nov-11 00:00N 51°15' E 004°21'0 0.0
2017-Nov-10 23:30N 51°15' E 004°21'0 0.0
2017-Nov-10 23:00N 51°15' E 004°21'0 0.0
2017-Nov-10 22:30N 51°15' E 004°21'0 0.0
2017-Nov-10 22:01N 51°15' E 004°21'0 0.0
2017-Nov-10 21:31N 51°15' E 004°21'0 0.0
2017-Nov-10 21:01N 51°15' E 004°21'0 0.0
2017-Nov-10 20:30N 51°15' E 004°21'0 0.0
2017-Nov-10 20:01N 51°15' E 004°21'0 0.0
2017-Nov-10 19:28N 51°15' E 004°21'0 0.0
2017-Nov-10 19:01N 51°15' E 004°21'0 0.0
2017-Nov-10 18:31N 51°15' E 004°21'0 0.0
2017-Nov-10 18:00N 51°15' E 004°21'0 0.0
2017-Nov-10 17:31N 51°15' E 004°21'0 0.0
2017-Nov-10 17:00N 51°15' E 004°21'0 0.0
2017-Nov-10 16:27N 51°15' E 004°21'0 0.0
2017-Nov-10 16:00N 51°15' E 004°21'0 0.0
2017-Nov-10 15:30N 51°15' E 004°21'0 0.0
2017-Nov-10 15:00N 51°15' E 004°21'0 0.0
2017-Nov-10 14:30N 51°15' E 004°21'0 0.0
2017-Nov-10 14:00N 51°15' E 004°21'0 0.0
2017-Nov-10 13:27N 51°15' E 004°21'0 0.0
2017-Nov-10 13:00N 51°15' E 004°21'0 0.0
2017-Nov-10 12:30N 51°15' E 004°21'0 0.0
2017-Nov-10 12:00N 51°15' E 004°21'0 0.0
2017-Nov-10 11:31N 51°15' E 004°21'0 0.0
2017-Nov-10 11:00N 51°15' E 004°21'0 0.0
2017-Nov-10 10:30N 51°15' E 004°21'0 0.0
2017-Nov-10 10:00N 51°15' E 004°21'0 0.0
2017-Nov-10 09:27N 51°15' E 004°21'0 0.0
2017-Nov-10 09:01N 51°15' E 004°21'0 0.0
2017-Nov-10 08:28N 51°15' E 004°21'0 0.0
2017-Nov-10 08:01N 51°15' E 004°21'0 0.0
2017-Nov-10 07:27N 51°15' E 004°21'0 0.0
2017-Nov-10 07:01N 51°15' E 004°21'0 0.0
2017-Nov-10 06:31N 51°15' E 004°21'0 0.0
2017-Nov-10 06:00N 51°15' E 004°21'0 0.0
2017-Nov-10 05:28N 51°15' E 004°21'0 0.0
2017-Nov-10 05:00N 51°15' E 004°21'0 0.0
2017-Nov-10 04:30N 51°15' E 004°21'0 0.0
2017-Nov-10 04:00N 51°15' E 004°21'0 0.0
2017-Nov-10 03:30N 51°15' E 004°21'0 0.0
2017-Nov-10 03:00N 51°15' E 004°21'0 0.0
2017-Nov-10 02:25N 51°15' E 004°21'0 0.0
2017-Nov-10 02:00N 51°15' E 004°21'0 0.0
2017-Nov-10 01:30N 51°15' E 004°21'0 0.0
2017-Nov-10 01:00N 51°15' E 004°21'2 3.5
2017-Nov-10 00:30N 51°17' E 004°20'3 5.8
2017-Nov-10 00:00N 51°19' E 004°19'3 5.1
2017-Nov-09 23:30N 51°22' E 004°17'0 0.2
2017-Nov-09 22:58N 51°22' E 004°17'0 0.0
2017-Nov-09 22:13N 51°22' E 004°17'0 0.0
2017-Nov-09 20:31N 51°22' E 004°17'0 0.0
2017-Nov-09 20:28N 51°22' E 004°17'0 0.0
2017-Nov-09 19:07N 51°22' E 004°17'0 0.0
2017-Nov-09 18:13N 51°22' E 004°17'0 0.0
2017-Nov-09 15:55N 51°22' E 004°17'0 0.0
2017-Nov-09 15:22N 51°22' E 004°17'0 0.0
2017-Nov-09 11:52N 51°22' E 004°17'0 0.0
2017-Nov-09 09:46N 51°22' E 004°17'0 0.0
2017-Nov-08 21:16N 51°22' E 004°17'0 0.0
2017-Nov-08 20:52N 51°22' E 004°17'0 0.0
2017-Nov-08 20:22N 51°22' E 004°17'0 0.0
2017-Nov-08 19:16N 51°22' E 004°17'0 0.0
2017-Nov-08 12:20N 51°22' E 004°17'0 0.0
2017-Nov-08 12:00N 51°22' E 004°17'1 1.9
2017-Nov-08 11:31N 51°21' E 004°18'0 0.7
2017-Nov-08 11:01N 51°21' E 004°17'0 0.0
2017-Nov-08 10:31N 51°21' E 004°17'0 0.5
2017-Nov-08 10:00N 51°21' E 004°17'3 6.9
2017-Nov-08 09:31N 51°23' E 004°13'4 7.9
2017-Nov-08 09:00N 51°22' E 004°06'4 7.7
2017-Nov-08 08:30N 51°25' E 004°02'3 5.4
2017-Nov-08 08:00N 51°24' E 003°58'4 8.8
2017-Nov-08 07:30N 51°21' E 003°53'4 9.0
2017-Nov-08 07:00N 51°22' E 003°46'5 9.6
2017-Nov-08 06:30N 51°26' E 003°41'5 9.2
2017-Nov-08 06:00N 51°26' E 003°34'2 4.5
2017-Nov-08 05:30N 51°25' E 003°30'4 7.3
2017-Nov-08 05:00N 51°25' E 003°25'611.2
2017-Nov-08 04:30N 51°25' E 003°16'611.8
2017-Nov-08 04:01N 51°24' E 003°06'611.7
2017-Nov-08 03:30N 51°25' E 002°57'611.9
2017-Nov-08 03:00N 51°25' E 002°48'3 6.4
2017-Nov-08 02:31N 51°24' E 002°43'2 4.2
2017-Nov-08 01:56N 51°25' E 002°40'0 0.0
2017-Nov-08 01:29N 51°25' E 002°40'0 0.1
2017-Nov-07 22:47N 51°25' E 002°40'0 0.0
2017-Nov-07 22:29N 51°25' E 002°40'0 0.0
2017-Nov-07 21:14N 51°25' E 002°40'0 0.1
2017-Nov-07 20:38N 51°25' E 002°40'0 0.2
2017-Nov-07 20:14N 51°25' E 002°40'0 0.1
2017-Nov-07 19:35N 51°25' E 002°40'0 0.1
2017-Nov-07 19:29N 51°25' E 002°40'0 0.0
2017-Nov-07 16:35N 51°25' E 002°40'0 0.0
2017-Nov-07 16:20N 51°25' E 002°40'0 0.0
2017-Nov-07 16:00N 51°25' E 002°40'0 0.0
2017-Nov-07 15:29N 51°25' E 002°40'0 0.0
2017-Nov-07 14:59N 51°25' E 002°40'0 0.0
2017-Nov-07 14:29N 51°25' E 002°40'  

Dump ship's entire track history